Time;durP1;ratioP1;P1;durP2;ratioP2;P2;SDS_P1;SDS_P2;PMS_P1;PMS_P2;Temp;Humidity;BMP_temperature;BMP_pressure;BME280_temperature;BME280_humidity;BME280_pressure;Samples;Min_cycle;Max_cycle;Signal;HPM_P1;HPM_P2
2021/09/27 00:00:44;;;;;;;13.63;12.23;;;;;;;14.14;100.00;96098.31;5051482;28;24427;-77
2021/09/27 00:03:10;;;;;;;14.27;12.88;;;;;;;14.09;100.00;96090.84;5051552;28;24430;-77
2021/09/27 00:05:39;;;;;;;14.93;12.52;;;;;;;13.98;100.00;96104.63;5051815;28;24424;-77
2021/09/27 00:08:06;;;;;;;13.25;11.90;;;;;;;13.97;100.00;96100.31;5051312;28;24430;-77
2021/09/27 00:10:36;;;;;;;13.98;12.55;;;;;;;14.08;100.00;96089.16;5051551;28;24464;-77
2021/09/27 00:13:05;;;;;;;14.40;12.98;;;;;;;14.15;100.00;96090.38;5051268;28;24552;-77
2021/09/27 00:15:36;;;;;;;14.25;12.55;;;;;;;14.24;100.00;96091.50;5051309;28;24994;-77
2021/09/27 00:18:05;;;;;;;14.00;12.57;;;;;;;14.20;100.00;96090.91;5052007;28;24419;-77
2021/09/27 00:20:31;;;;;;;14.13;12.63;;;;;;;14.28;100.00;96091.16;5053728;28;24424;-78
2021/09/27 00:22:59;;;;;;;12.93;11.60;;;;;;;14.34;100.00;96089.88;5054114;28;24435;-78
2021/09/27 00:25:27;;;;;;;13.77;11.80;;;;;;;14.36;100.00;96097.59;5055426;28;24485;-78
2021/09/27 00:27:54;;;;;;;14.20;12.50;;;;;;;14.38;100.00;96093.91;5055430;28;24937;-78
2021/09/27 00:30:21;;;;;;;14.20;12.32;;;;;;;14.40;100.00;96088.59;5055366;28;24458;-78
2021/09/27 00:32:50;;;;;;;13.13;11.82;;;;;;;14.46;100.00;96088.13;5055251;28;24493;-78
2021/09/27 00:35:20;;;;;;;14.18;12.68;;;;;;;14.44;100.00;96090.88;5055811;28;24419;-78
2021/09/27 00:37:47;;;;;;;13.57;12.13;;;;;;;14.43;100.00;96086.59;5055323;28;24407;-78
2021/09/27 00:40:18;;;;;;;16.40;13.45;;;;;;;14.35;100.00;96081.13;5054705;28;24443;-78
2021/09/27 00:42:45;;;;;;;16.35;13.15;;;;;;;14.28;100.00;96087.72;5055696;28;24454;-78
2021/09/27 00:45:12;;;;;;;16.75;13.05;;;;;;;14.37;100.00;96086.22;5054444;28;24435;-78
2021/09/27 00:47:39;;;;;;;13.25;11.85;;;;;;;14.25;100.00;96083.56;5052011;28;25166;-78
2021/09/27 00:50:09;;;;;;;13.60;12.25;;;;;;;14.23;100.00;96085.44;5055016;28;24516;-77
2021/09/27 00:52:37;;;;;;;14.75;13.20;;;;;;;14.20;100.00;96085.69;5056820;28;24496;-78
2021/09/27 00:55:09;;;;;;;14.23;12.80;;;;;;;14.22;100.00;96083.78;5057426;28;24964;-78
2021/09/27 00:57:36;;;;;;;14.07;12.77;;;;;;;14.23;100.00;96085.44;5058427;28;24506;-78
2021/09/27 01:00:07;;;;;;;14.68;13.23;;;;;;;14.22;100.00;96080.34;5056738;28;24498;-78
2021/09/27 01:02:34;;;;;;;14.60;12.87;;;;;;;14.23;100.00;96069.81;5056678;28;24971;-78
2021/09/27 01:05:01;;;;;;;15.13;13.00;;;;;;;14.29;100.00;96074.59;5056328;28;24952;-78
2021/09/27 01:07:40;;;;;;;13.80;12.50;;;;;;;14.28;100.00;96070.31;5055638;28;24806;-78
2021/09/27 01:10:27;;;;;;;14.63;13.20;;;;;;;14.31;100.00;96071.03;5055379;28;24431;-78
2021/09/27 01:13:07;;;;;;;13.93;12.52;;;;;;;14.28;100.00;96065.09;5055883;28;24447;-79
2021/09/27 01:15:42;;;;;;;14.25;12.85;;;;;;;14.24;100.00;96076.69;5056236;28;24411;-78
2021/09/27 01:18:24;;;;;;;13.18;11.88;;;;;;;14.19;100.00;96062.31;5055852;28;24473;-78
2021/09/27 01:21:10;;;;;;;14.80;12.18;;;;;;;14.22;100.00;96060.34;5055819;28;24419;-78
2021/09/27 01:24:13;;;;;;;16.58;12.40;;;;;;;14.14;100.00;96065.28;5053986;28;24967;-78
2021/09/27 01:27:09;;;;;;;13.70;12.30;;;;;;;13.99;100.00;96061.19;5053915;28;24784;-78
2021/09/27 01:29:59;;;;;;;14.02;12.63;;;;;;;13.89;100.00;96067.97;5053941;28;24477;-77
2021/09/27 01:32:33;;;;;;;14.68;13.27;;;;;;;13.74;100.00;96064.69;5056533;28;24446;-78
2021/09/27 01:35:27;;;;;;;13.23;11.95;;;;;;;13.82;100.00;96062.34;5057971;28;24450;-78
2021/09/27 01:38:11;;;;;;;14.27;12.23;;;;;;;13.82;100.00;96062.34;5058352;28;24455;-78
2021/09/27 01:40:46;;;;;;;14.47;13.07;;;;;;;13.88;100.00;96059.34;5058455;28;24423;-78
2021/09/27 01:43:18;;;;;;;13.35;11.95;;;;;;;13.93;100.00;96053.78;5058209;28;24446;-78
2021/09/27 01:45:53;;;;;;;14.70;13.07;;;;;;;13.89;100.00;96053.19;5057431;28;24998;-78
2021/09/27 01:48:25;;;;;;;13.88;12.57;;;;;;;13.91;100.00;96048.72;5057751;28;24520;-78
2021/09/27 01:50:59;;;;;;;22.07;12.57;;;;;;;13.91;100.00;96047.88;5058097;28;24431;-78
2021/09/27 01:53:31;;;;;;;12.95;11.70;;;;;;;13.96;100.00;96053.56;5057834;28;24422;-78
2021/09/27 01:56:07;;;;;;;12.80;11.55;;;;;;;13.86;100.00;96055.16;5057743;28;24430;-78
2021/09/27 01:58:51;;;;;;;14.15;12.35;;;;;;;13.86;100.00;96047.34;5057513;28;24481;-78
2021/09/27 02:01:26;;;;;;;12.90;11.60;;;;;;;13.89;100.00;96054.94;5057717;28;24476;-78
2021/09/27 02:04:00;;;;;;;12.70;11.50;;;;;;;13.84;100.00;96063.09;5054304;28;24434;-78
2021/09/27 02:06:35;;;;;;;13.27;11.95;;;;;;;13.74;100.00;96072.50;5053545;28;24438;-78
2021/09/27 02:09:08;;;;;;;12.88;11.60;;;;;;;13.72;100.00;96064.81;5055574;28;24793;-78
2021/09/27 02:11:37;;;;;;;13.33;11.93;;;;;;;13.73;100.00;96066.47;5055860;28;24454;-78
2021/09/27 02:14:12;;;;;;;15.90;12.85;;;;;;;13.72;100.00;96072.63;5055577;28;24415;-78
2021/09/27 02:16:45;;;;;;;13.20;11.90;;;;;;;13.71;100.00;96068.31;5055698;28;24446;-78
2021/09/27 02:19:21;;;;;;;13.57;11.87;;;;;;;13.65;100.00;96073.97;5055490;28;24524;-78
2021/09/27 02:21:53;;;;;;;13.10;11.70;;;;;;;13.58;100.00;96069.31;5055708;28;24937;-78
2021/09/27 02:24:26;;;;;;;12.48;11.27;;;;;;;13.52;100.00;96066.19;5057511;28;24414;-78
2021/09/27 02:26:53;;;;;;;12.50;11.27;;;;;;;13.49;100.00;96065.56;5057700;28;24465;-78
2021/09/27 02:29:20;;;;;;;13.52;11.98;;;;;;;13.47;100.00;96065.69;5058046;28;24435;-78
2021/09/27 02:31:56;;;;;;;12.77;11.50;;;;;;;13.36;100.00;96067.38;5057672;28;24442;-78
2021/09/27 02:34:34;;;;;;;13.05;11.77;;;;;;;13.28;100.00;96060.94;5058617;28;24431;-78
2021/09/27 02:37:07;;;;;;;13.15;11.75;;;;;;;13.30;100.00;96056.44;5058376;28;24430;-78
2021/09/27 02:39:41;;;;;;;14.48;11.90;;;;;;;13.27;100.00;96059.28;5075565;22;24819;-77
2021/09/27 02:42:14;;;;;;;13.68;12.23;;;;;;;13.31;100.00;96059.84;5073328;28;24418;-78
2021/09/27 02:44:40;;;;;;;12.68;11.38;;;;;;;13.29;100.00;96070.38;5072938;28;24422;-77
2021/09/27 02:47:11;;;;;;;13.85;11.63;;;;;;;13.29;100.00;96059.16;5072730;28;24484;-76
2021/09/27 02:49:44;;;;;;;12.27;11.07;;;;;;;13.30;100.00;96059.03;5073382;28;24427;-77
2021/09/27 02:52:13;;;;;;;12.80;11.55;;;;;;;13.28;100.00;96065.31;5072817;28;24454;-76
2021/09/27 02:54:43;;;;;;;12.70;11.50;;;;;;;13.25;100.00;96066.34;5072730;28;24440;-77
2021/09/27 02:57:31;;;;;;;11.43;10.27;;;;;;;13.31;100.00;96073.72;5073382;28;24476;-76
2021/09/27 03:00:06;;;;;;;13.90;8.23;;;;;;;13.30;100.00;96069.44;5073382;28;24426;-77
2021/09/27 03:02:42;;;;;;;9.37;7.50;;;;;;;13.24;100.00;96072.47;5072706;28;24418;-76
2021/09/27 03:05:20;;;;;;;5.32;4.78;;;;;;;13.25;100.00;96071.53;5070507;28;24911;-76
2021/09/27 03:08:19;;;;;;;7.57;6.63;;;;;;;13.18;100.00;96074.63;5071350;28;24411;-76
2021/09/27 03:11:02;;;;;;;7.95;7.20;;;;;;;13.15;100.00;96075.66;5070113;28;24430;-76
2021/09/27 03:13:38;;;;;;;8.32;7.63;;;;;;;13.15;100.00;96064.44;5070591;28;24439;-76
2021/09/27 03:16:26;;;;;;;9.85;8.93;;;;;;;13.14;100.00;96071.41;5070164;28;25028;-76
2021/09/27 03:19:09;;;;;;;12.17;9.67;;;;;;;13.10;100.00;96066.53;5070709;28;24780;-76
2021/09/27 03:21:44;;;;;;;11.30;10.20;;;;;;;13.16;100.00;96068.69;5071135;28;24947;-77
2021/09/27 03:24:27;;;;;;;10.45;9.45;;;;;;;13.17;100.00;96071.19;5072429;28;24418;-76
2021/09/27 03:27:02;;;;;;;9.32;8.43;;;;;;;13.19;100.00;96065.88;5074551;28;24429;-75
2021/09/27 03:29:42;;;;;;;8.38;7.57;;;;;;;13.31;100.00;96063.31;5074016;28;24434;-75
2021/09/27 03:32:23;;;;;;;8.40;7.22;;;;;;;13.05;100.00;96069.41;5070698;28;24800;-76
2021/09/27 03:34:57;;;;;;;9.18;8.23;;;;;;;12.96;100.00;96068.28;5070168;28;24422;-76
2021/09/27 03:37:41;;;;;;;7.93;7.13;;;;;;;12.90;100.00;96062.66;5070190;28;24482;-76
2021/09/27 03:40:32;;;;;;;9.52;8.63;;;;;;;12.86;100.00;96059.44;5070351;28;24435;-76
2021/09/27 03:43:08;;;;;;;8.73;7.93;;;;;;;13.07;100.00;96055.38;5070471;28;24478;-76
2021/09/27 03:45:48;;;;;;;10.60;9.60;;;;;;;12.93;100.00;96055.47;5070107;28;24426;-76
2021/09/27 03:48:17;;;;;;;10.23;6.82;;;;;;;12.98;100.00;96053.41;5070609;28;24998;-76
2021/09/27 03:50:48;;;;;;;22.70;7.75;;;;;;;12.87;100.00;96055.06;5070723;28;24441;-77
2021/09/27 03:53:21;;;;;;;9.83;8.87;;;;;;;12.76;100.00;96063.59;5070629;28;25002;-77
2021/09/27 03:55:52;;;;;;;10.55;9.52;;;;;;;12.68;100.00;96063.25;5070511;28;24430;-77
2021/09/27 03:58:24;;;;;;;12.38;10.30;;;;;;;12.68;100.00;96064.13;5070807;28;24959;-76
2021/09/27 04:00:58;;;;;;;9.45;8.55;;;;;;;12.69;100.00;96054.53;5070880;28;24450;-77
2021/09/27 04:03:39;;;;;;;10.27;9.27;;;;;;;12.67;100.00;96051.19;5071032;28;24585;-76
2021/09/27 04:06:19;;;;;;;11.73;10.50;;;;;;;12.55;100.00;96053.69;5070358;28;24421;-76
2021/09/27 04:08:58;;;;;;;12.10;10.98;;;;;;;12.46;100.00;96048.25;5067244;28;24450;-77
2021/09/27 04:11:36;;;;;;;11.98;10.88;;;;;;;12.50;100.00;96044.53;5069184;28;25024;-76
2021/09/27 04:14:09;;;;;;;12.30;11.10;;;;;;;12.50;100.00;96052.34;5070160;28;24433;-76
2021/09/27 04:16:48;;;;;;;12.45;11.18;;;;;;;12.58;100.00;96055.25;5063205;28;24434;-76
2021/09/27 04:19:23;;;;;;;11.40;10.30;;;;;;;12.63;100.00;96050.56;5073676;28;24434;-76
2021/09/27 04:21:58;;;;;;;12.80;11.00;;;;;;;12.68;100.00;96052.84;5074690;28;24435;-76
2021/09/27 04:24:45;;;;;;;16.58;11.00;;;;;;;12.65;100.00;96053.91;5073326;28;24449;-76
2021/09/27 04:27:24;;;;;;;39.65;11.80;;;;;;;12.55;100.00;96055.44;5067408;28;24982;-77
2021/09/27 04:30:18;;;;;;;16.35;12.00;;;;;;;12.31;100.00;96053.53;5070839;28;24435;-76
2021/09/27 04:33:06;;;;;;;11.95;10.85;;;;;;;12.41;100.00;96058.13;5064963;28;24560;-76
2021/09/27 04:35:39;;;;;;;13.02;11.52;;;;;;;12.49;100.00;96055.84;5053962;28;24425;-76
2021/09/27 04:38:10;;;;;;;13.18;11.88;;;;;;;12.52;100.00;96053.06;5054120;28;24418;-77
2021/09/27 04:40:55;;;;;;;12.27;11.00;;;;;;;12.54;100.00;96056.41;5068419;28;24485;-76
2021/09/27 04:43:36;;;;;;;23.35;9.32;;;;;;;12.42;100.00;96049.38;5069665;28;24430;-76
2021/09/27 04:46:11;;;;;;;17.38;9.75;;;;;;;12.53;100.00;96046.91;5072785;28;24435;-76
2021/09/27 04:48:58;;;;;;;17.75;9.70;;;;;;;12.42;100.00;96052.84;5074952;28;24418;-77
2021/09/27 04:51:41;;;;;;;11.50;10.30;;;;;;;12.26;100.00;96055.59;5075309;28;24470;-76
2021/09/27 04:54:29;;;;;;;24.65;10.50;;;;;;;12.20;100.00;96058.59;5075044;28;24450;-77
2021/09/27 04:57:05;;;;;;;11.40;10.25;;;;;;;12.17;100.00;96063.97;5074347;28;24429;-76
2021/09/27 04:59:46;;;;;;;10.35;9.35;;;;;;;12.23;100.00;96060.97;5074667;28;24945;-77
2021/09/27 05:02:31;;;;;;;10.80;9.65;;;;;;;12.30;100.00;96051.84;5075069;28;24473;-77
2021/09/27 05:05:06;;;;;;;9.80;8.60;;;;;;;12.30;100.00;96061.41;5074379;28;24418;-77
2021/09/27 05:07:55;;;;;;;9.30;8.33;;;;;;;12.28;100.00;96058.09;5074861;28;24426;-76
2021/09/27 05:10:45;;;;;;;9.32;7.60;;;;;;;12.31;100.00;96063.06;5065985;28;24501;-76
2021/09/27 05:13:30;;;;;;;8.38;7.07;;;;;;;12.28;100.00;96058.94;5073683;28;24450;-77
2021/09/27 05:16:07;;;;;;;9.75;6.32;;;;;;;12.23;100.00;96058.38;5077176;28;24418;-76
2021/09/27 05:19:01;;;;;;;9.53;6.30;;;;;;;12.19;100.00;96054.31;5071996;28;24427;-76
2021/09/27 05:22:04;;;;;;;23.67;6.43;;;;;;;12.18;100.00;96055.25;5071391;28;24422;-77
2021/09/27 05:24:52;;;;;;;9.77;5.82;;;;;;;12.10;100.00;96065.31;5072933;28;24434;-76
2021/09/27 05:27:42;;;;;;;5.47;5.05;;;;;;;12.08;100.00;96061.97;5073101;28;24410;-76
2021/09/27 05:30:22;;;;;;;5.60;5.10;;;;;;;12.07;100.00;96063.72;5063532;28;24430;-76
2021/09/27 05:32:54;;;;;;;6.20;4.78;;;;;;;12.07;100.00;96062.91;5054543;28;25033;-76
2021/09/27 05:35:44;;;;;;;5.57;5.18;;;;;;;12.02;100.00;96062.38;5054074;28;24968;-76
2021/09/27 05:38:21;;;;;;;6.10;5.20;;;;;;;11.97;100.00;96067.00;5054693;28;24427;-75
2021/09/27 05:40:58;;;;;;;5.40;5.00;;;;;;;12.02;100.00;96071.00;5052532;28;24956;-75
2021/09/27 05:43:42;;;;;;;6.97;6.38;;;;;;;12.01;100.00;96073.66;5052765;28;24977;-76
2021/09/27 05:46:27;;;;;;;7.05;6.38;;;;;;;12.06;100.00;96069.03;5052630;28;25181;-75
2021/09/27 05:48:59;;;;;;;8.10;6.27;;;;;;;12.12;100.00;96076.41;5052968;28;24477;-75
2021/09/27 05:51:35;;;;;;;9.18;5.80;;;;;;;12.14;100.00;96079.75;5052929;28;24426;-75
2021/09/27 05:54:08;;;;;;;7.20;6.07;;;;;;;12.16;100.00;96077.03;5070122;28;24469;-75
2021/09/27 05:56:42;;;;;;;6.97;5.03;;;;;;;12.22;100.00;96074.06;5072719;28;24410;-75
2021/09/27 05:59:17;;;;;;;12.90;5.28;;;;;;;12.24;100.00;96077.41;5072643;28;24784;-75
2021/09/27 06:01:57;;;;;;;12.13;4.75;;;;;;;12.35;100.00;96083.56;5072362;28;24943;-76
2021/09/27 06:04:27;;;;;;;8.25;4.82;;;;;;;12.32;100.00;96088.97;5072004;28;24560;-75
2021/09/27 06:07:04;;;;;;;8.30;4.80;;;;;;;12.33;100.00;96087.19;5072048;28;24830;-76
2021/09/27 06:09:44;;;;;;;17.08;4.97;;;;;;;12.32;100.00;96085.53;5071810;28;24434;-75
2021/09/27 06:12:21;;;;;;;15.73;4.57;;;;;;;12.24;100.00;96075.63;5072077;28;24426;-75
2021/09/27 06:14:49;;;;;;;5.23;4.73;;;;;;;12.28;100.00;96076.28;5072320;28;24432;-75
2021/09/27 06:17:32;;;;;;;6.40;4.90;;;;;;;12.36;100.00;96084.41;5072112;28;24415;-76
2021/09/27 06:20:06;;;;;;;15.35;4.70;;;;;;;12.21;100.00;96083.63;5071860;28;24415;-75
2021/09/27 06:22:46;;;;;;;17.00;5.85;;;;;;;12.27;100.00;96078.03;5072036;28;24407;-75
2021/09/27 06:25:20;;;;;;;5.72;5.22;;;;;;;12.35;100.00;96075.78;5071650;28;24783;-75
2021/09/27 06:27:54;;;;;;;11.10;5.22;;;;;;;12.43;100.00;96071.84;5069625;28;24439;-75
2021/09/27 06:30:29;;;;;;;7.30;5.47;;;;;;;12.47;100.00;96071.53;5069196;28;24446;-75
2021/09/27 06:33:05;;;;;;;10.55;6.07;;;;;;;12.48;100.00;96078.41;5066960;28;24876;-76
2021/09/27 06:35:35;;;;;;;7.03;6.30;;;;;;;12.44;100.00;96074.34;5051581;28;24486;-76
2021/09/27 06:38:03;;;;;;;13.43;6.38;;;;;;;12.46;100.00;96077.69;5051557;28;24435;-75
2021/09/27 06:40:30;;;;;;;15.00;6.63;;;;;;;12.37;100.00;96080.03;5051113;28;24426;-76
2021/09/27 06:42:57;;;;;;;9.38;6.57;;;;;;;12.43;100.00;96072.69;5051971;28;25095;-76
2021/09/27 06:45:23;;;;;;;15.05;6.03;;;;;;;12.43;100.00;96074.44;5052124;28;24488;-77
2021/09/27 06:47:50;;;;;;;13.15;6.60;;;;;;;12.42;100.00;96081.41;5056036;28;24427;-76
2021/09/27 06:50:18;;;;;;;9.73;7.00;;;;;;;12.47;100.00;96073.31;5057083;28;24438;-76
2021/09/27 06:52:44;;;;;;;16.15;6.90;;;;;;;12.59;100.00;96073.31;5055049;28;24458;-77
2021/09/27 06:55:11;;;;;;;11.77;7.05;;;;;;;12.70;100.00;96072.63;5068588;28;24431;-77
2021/09/27 06:57:38;;;;;;;14.30;8.07;;;;;;;12.58;100.00;96068.25;5055247;28;24859;-72
2021/09/27 07:00:08;;;;;;;16.75;8.70;;;;;;;12.60;100.00;96071.56;5052664;28;24977;-77
2021/09/27 07:02:35;;;;;;;14.02;7.88;;;;;;;12.72;100.00;96065.56;5051872;28;24423;-76
2021/09/27 07:05:01;;;;;;;15.48;7.88;;;;;;;12.77;100.00;96063.47;5051579;28;24427;-76
2021/09/27 07:07:29;;;;;;;16.40;9.03;;;;;;;12.77;100.00;96063.47;5054067;28;25299;-77
2021/09/27 07:09:56;;;;;;;12.65;8.43;;;;;;;12.91;100.00;96064.34;5070964;28;24501;-74
2021/09/27 07:12:22;;;;;;;14.40;8.77;;;;;;;12.98;100.00;96060.41;5071612;28;24427;-77
2021/09/27 07:14:49;;;;;;;20.35;9.02;;;;;;;13.04;100.00;96057.34;5070600;28;24513;-75
2021/09/27 07:17:15;;;;;;;13.63;8.80;;;;;;;13.13;100.00;96064.56;5071285;28;24423;-76
2021/09/27 07:19:42;;;;;;;14.40;8.23;;;;;;;13.27;100.00;96061.00;5071242;28;24430;-77
2021/09/27 07:22:09;;;;;;;8.70;7.78;;;;;;;13.46;100.00;96065.78;5070935;28;24438;-76
2021/09/27 07:24:37;;;;;;;15.85;8.82;;;;;;;13.49;100.00;96069.00;5070833;28;24465;-77
2021/09/27 07:27:04;;;;;;;9.30;8.30;;;;;;;13.71;100.00;96064.88;5070641;28;24831;-75
2021/09/27 07:29:31;;;;;;;9.45;8.55;;;;;;;14.03;100.00;96062.63;5070659;28;24438;-76
2021/09/27 07:31:57;;;;;;;10.33;8.97;;;;;;;13.99;100.00;96074.19;5070719;28;24468;-76
2021/09/27 07:34:24;;;;;;;9.95;8.90;;;;;;;14.34;100.00;96074.25;5070455;28;24446;-76
2021/09/27 07:36:50;;;;;;;9.65;8.68;;;;;;;14.57;100.00;96071.75;5070800;28;24496;-77
2021/09/27 07:39:18;;;;;;;10.38;9.38;;;;;;;14.85;100.00;96073.16;5070681;28;24442;-76
2021/09/27 07:41:47;;;;;;;9.82;8.88;;;;;;;15.21;100.00;96065.16;5071168;28;24848;-75
2021/09/27 07:44:13;;;;;;;10.93;9.82;;;;;;;15.51;100.00;96070.72;5070563;28;24422;-76
2021/09/27 07:46:40;;;;;;;10.10;9.10;;;;;;;15.56;100.00;96072.03;5070846;28;24508;-76
2021/09/27 07:49:06;;;;;;;10.68;8.65;;;;;;;15.93;100.00;96069.16;5070803;28;24480;-77
2021/09/27 07:51:33;;;;;;;9.88;8.98;;;;;;;16.17;100.00;96064.59;5070411;28;24418;-76
2021/09/27 07:54:00;;;;;;;9.05;8.25;;;;;;;16.46;100.00;96058.78;5070522;28;24446;-75
2021/09/27 07:56:26;;;;;;;9.45;8.38;;;;;;;16.63;100.00;96060.03;5071072;28;24483;-76
2021/09/27 07:58:54;;;;;;;9.80;8.20;;;;;;;16.71;100.00;96062.84;5074353;28;24975;-76
2021/09/27 08:01:21;;;;;;;8.60;7.80;;;;;;;16.40;100.00;96067.13;5074796;28;25105;-76
2021/09/27 08:03:47;;;;;;;9.73;8.73;;;;;;;16.59;100.00;96071.69;5074820;28;24419;-76
2021/09/27 08:06:14;;;;;;;8.52;7.55;;;;;;;16.35;100.00;96077.97;5074121;28;24434;-77
2021/09/27 08:08:41;;;;;;;8.82;7.93;;;;;;;16.31;100.00;96075.72;5074658;28;24426;-76
2021/09/27 08:11:07;;;;;;;9.25;8.20;;;;;;;15.92;100.00;96070.94;5074780;28;24429;-76
2021/09/27 08:13:34;;;;;;;10.35;8.90;;;;;;;15.92;100.00;96073.56;5074264;28;24987;-77
2021/09/27 08:16:03;;;;;;;10.98;9.27;;;;;;;16.24;100.00;96066.69;5074476;28;24521;-77
2021/09/27 08:18:29;;;;;;;11.02;8.27;;;;;;;16.78;100.00;96069.25;5074308;28;24422;-76
2021/09/27 08:20:59;;;;;;;10.03;8.33;;;;;;;16.55;100.00;96075.53;5073950;28;24468;-75
2021/09/27 08:23:26;;;;;;;9.10;7.47;;;;;;;16.73;100.00;96076.63;5073991;28;24480;-76
2021/09/27 08:25:54;;;;;;;11.82;8.35;;;;;;;17.04;100.00;96071.47;5074129;28;24843;-76
2021/09/27 08:28:23;;;;;;;11.80;8.48;;;;;;;17.54;100.00;96061.09;5074472;28;24422;-76
2021/09/27 08:30:53;;;;;;;11.47;8.33;;;;;;;18.02;99.78;96065.69;5074386;28;24492;-76
2021/09/27 08:33:21;;;;;;;12.23;7.97;;;;;;;18.29;96.92;96072.94;5074208;28;24959;-76
2021/09/27 08:35:50;;;;;;;7.82;7.03;;;;;;;18.72;97.06;96071.72;5074019;28;24430;-76
2021/09/27 08:38:18;;;;;;;6.97;6.27;;;;;;;18.97;91.50;96071.16;5073481;28;24963;-77
2021/09/27 08:41:05;;;;;;;7.90;6.70;;;;;;;18.70;91.40;96069.22;5096799;22;24478;-78
2021/09/27 08:43:49;;;;;;;7.47;6.00;;;;;;;18.34;92.76;96070.72;5050670;28;24971;-78
2021/09/27 08:46:22;;;;;;;7.63;6.22;;;;;;;18.41;92.30;96074.47;5060143;28;24562;-78
2021/09/27 08:48:56;;;;;;;9.70;6.55;;;;;;;18.27;94.03;96074.84;5059703;28;24438;-78
2021/09/27 08:51:23;;;;;;;8.63;6.87;;;;;;;18.74;96.74;96067.19;5060868;28;24423;-78
2021/09/27 08:53:54;;;;;;;8.07;6.10;;;;;;;19.27;90.51;96069.28;5058293;28;24551;-78
2021/09/27 08:56:28;;;;;;;6.05;5.45;;;;;;;19.62;86.51;96066.03;5058547;28;24449;-77
2021/09/27 08:59:03;;;;;;;5.57;4.97;;;;;;;19.15;87.27;96063.38;5050202;28;24478;-77
2021/09/27 09:01:36;;;;;;;6.25;5.65;;;;;;;18.76;89.54;96065.22;5040098;28;24518;-77
2021/09/27 09:04:11;;;;;;;11.63;5.65;;;;;;;18.57;90.62;96061.63;5039824;28;24479;-77
2021/09/27 09:06:42;;;;;;;6.57;5.45;;;;;;;19.00;90.50;96063.00;5039559;28;24420;-78
2021/09/27 09:09:15;;;;;;;5.72;5.20;;;;;;;19.53;88.76;96057.16;5038647;28;24432;-78
2021/09/27 09:11:50;;;;;;;5.82;5.30;;;;;;;19.84;87.92;96049.06;5040039;28;24416;-77
2021/09/27 09:14:24;;;;;;;5.00;4.55;;;;;;;20.30;81.70;96049.88;5040615;28;24432;-77
2021/09/27 09:16:52;;;;;;;8.90;4.93;;;;;;;20.52;79.34;96059.97;5034861;28;24427;-78
2021/09/27 09:19:27;;;;;;;5.32;3.88;;;;;;;20.79;78.92;96052.97;5037279;28;24423;-78
2021/09/27 09:21:57;;;;;;;6.10;4.93;;;;;;;20.23;78.63;96048.81;5040073;28;24442;-77
2021/09/27 09:24:27;;;;;;;4.78;4.30;;;;;;;20.58;81.20;96055.94;5039617;28;24511;-77
2021/09/27 09:26:59;;;;;;;5.65;4.57;;;;;;;20.68;78.78;96055.81;5043408;28;24442;-77
2021/09/27 09:29:28;;;;;;;12.00;4.33;;;;;;;19.95;79.44;96056.75;5058540;28;24498;-77
2021/09/27 09:31:59;;;;;;;5.57;4.50;;;;;;;20.34;79.61;96053.84;5058716;28;24964;-77
2021/09/27 09:34:36;;;;;;;4.73;4.20;;;;;;;20.64;78.17;96051.84;5056552;28;24446;-77
2021/09/27 09:37:08;;;;;;;4.20;3.28;;;;;;;20.01;76.42;96053.50;5055953;28;24493;-77
2021/09/27 09:39:37;;;;;;;4.07;3.33;;;;;;;19.52;78.02;96058.16;5049547;28;24485;-77
2021/09/27 09:42:06;;;;;;;6.00;4.22;;;;;;;20.03;79.89;96050.75;5058236;28;24431;-77
2021/09/27 09:44:38;;;;;;;4.70;3.85;;;;;;;20.09;79.69;96055.41;5049846;28;24461;-77
2021/09/27 09:47:08;;;;;;;6.13;4.07;;;;;;;20.61;77.76;96046.88;5051642;28;24427;-77
2021/09/27 09:49:53;;;;;;;4.38;3.50;;;;;;;20.99;74.93;96043.91;5055611;28;24952;-77
2021/09/27 09:52:25;;;;;;;5.25;3.50;;;;;;;21.10;72.63;96049.88;5054987;28;24790;-77
2021/09/27 09:54:53;;;;;;;4.03;3.30;;;;;;;20.82;74.42;96046.56;5056377;28;24538;-77
2021/09/27 09:57:26;;;;;;;4.28;3.08;;;;;;;19.95;74.98;96042.75;5056075;28;24489;-77
2021/09/27 10:00:00;;;;;;;3.63;2.97;;;;;;;19.62;76.26;96046.78;5057044;28;24426;-78
2021/09/27 10:02:28;;;;;;;3.97;3.00;;;;;;;19.83;78.34;96050.84;5056884;28;24415;-77
2021/09/27 10:05:04;;;;;;;5.05;2.90;;;;;;;19.94;77.54;96048.97;5056655;28;24477;-77
2021/09/27 10:07:37;;;;;;;4.75;3.10;;;;;;;20.11;75.29;96047.38;5054843;28;24820;-77
2021/09/27 10:10:08;;;;;;;14.60;3.80;;;;;;;19.87;77.01;96046.09;5052657;28;25008;-77
2021/09/27 10:12:45;;;;;;;5.93;3.75;;;;;;;19.32;79.73;96043.44;5036559;28;24427;-77
2021/09/27 10:15:15;;;;;;;5.60;3.80;;;;;;;19.44;78.86;96042.28;5041484;28;24505;-76
2021/09/27 10:17:42;;;;;;;4.18;2.20;;;;;;;19.43;75.19;96042.41;5051731;28;24944;-76
2021/09/27 10:20:16;;;;;;;5.70;2.88;;;;;;;19.62;78.08;96044.16;5051648;28;24431;-77
2021/09/27 10:22:52;;;;;;;4.65;2.40;;;;;;;19.88;73.53;96046.97;5051772;28;24518;-76
2021/09/27 10:25:32;;;;;;;4.60;2.28;;;;;;;19.62;73.19;96049.41;5051484;28;24745;-77
2021/09/27 10:28:00;;;;;;;2.72;1.95;;;;;;;19.53;74.44;96049.28;5051923;28;24473;-77
2021/09/27 10:30:43;;;;;;;3.67;2.35;;;;;;;19.68;75.28;96039.16;5052282;28;24423;-78
2021/09/27 10:33:17;;;;;;;2.83;2.05;;;;;;;20.01;74.22;96042.16;5052229;28;24442;-77
2021/09/27 10:35:54;;;;;;;4.50;2.25;;;;;;;19.85;70.87;96042.00;5051845;28;24526;-78
2021/09/27 10:38:26;;;;;;;2.45;2.00;;;;;;;19.69;72.23;96032.09;5052123;28;24434;-77
2021/09/27 10:40:53;;;;;;;2.97;1.90;;;;;;;19.69;72.89;96038.22;5051733;28;24449;-77
2021/09/27 10:43:23;;;;;;;3.00;2.22;;;;;;;19.87;72.66;96037.41;5052209;28;24419;-78
2021/09/27 10:45:52;;;;;;;3.00;2.40;;;;;;;19.75;73.78;96034.16;5060999;28;24773;-78
2021/09/27 10:48:21;;;;;;;2.65;2.00;;;;;;;19.61;72.55;96032.78;5061732;28;24432;-78
2021/09/27 10:50:53;;;;;;;4.07;2.42;;;;;;;19.82;75.62;96025.53;5061139;28;24531;-78
2021/09/27 10:53:25;;;;;;;2.43;2.00;;;;;;;19.86;72.95;96026.06;5056148;28;24423;-78
2021/09/27 10:55:56;;;;;;;3.15;1.80;;;;;;;19.93;70.51;96027.13;5053929;28;24484;-78
2021/09/27 10:58:36;;;;;;;3.30;2.10;;;;;;;19.79;70.90;96025.00;5053582;28;24437;-78
2021/09/27 11:01:05;;;;;;;2.75;2.00;;;;;;;20.02;70.13;96026.25;5053900;28;24485;-79
2021/09/27 11:03:38;;;;;;;6.13;2.20;;;;;;;20.01;69.49;96021.13;5054017;28;24427;-78
2021/09/27 11:06:27;;;;;;;2.13;1.90;;;;;;;19.83;70.43;96019.28;5053460;28;24458;-78
2021/09/27 11:09:00;;;;;;;2.70;2.10;;;;;;;19.96;71.53;96011.06;5054082;28;24976;-78
2021/09/27 11:11:45;;;;;;;2.58;1.63;;;;;;;19.87;70.20;96013.75;5054292;28;24446;-78
2021/09/27 11:14:21;;;;;;;3.30;1.92;;;;;;;19.79;69.83;96006.59;5054306;28;24472;-78
2021/09/27 11:16:56;;;;;;;2.47;1.73;;;;;;;19.86;69.80;96009.47;5054683;28;24406;-78
2021/09/27 11:19:35;;;;;;;2.90;1.70;;;;;;;19.99;70.13;96013.41;5054114;28;24781;-78
2021/09/27 11:22:33;;;;;;;1.90;1.60;;;;;;;20.05;69.33;96018.06;5052901;28;24427;-78
2021/09/27 11:25:33;;;;;;;2.67;1.98;;;;;;;20.12;68.59;96018.28;5053446;28;24469;-79
2021/09/27 11:28:26;;;;;;;3.30;1.50;;;;;;;20.14;68.29;96016.34;5067055;28;24431;-78
2021/09/27 11:31:09;;;;;;;3.10;1.70;;;;;;;20.22;67.08;96019.06;5073621;28;24423;-78
2021/09/27 11:33:49;;;;;;;2.28;1.60;;;;;;;20.21;68.75;96011.28;5073360;28;24430;-78
2021/09/27 11:36:50;;;;;;;4.13;1.63;;;;;;;20.21;67.13;96011.28;5065465;28;24442;-78
2021/09/27 11:39:29;;;;;;;3.22;2.08;;;;;;;20.15;68.16;96006.66;5054000;28;24421;-78
2021/09/27 11:42:29;;;;;;;3.05;1.92;;;;;;;20.24;68.88;96006.56;5011550;28;24420;-78
2021/09/27 11:45:14;;;;;;;7.93;1.52;;;;;;;20.11;67.16;96005.31;5004140;28;24482;-78
2021/09/27 11:47:57;;;;;;;2.40;1.70;;;;;;;20.15;68.29;96009.28;5014559;28;24455;-78
2021/09/27 11:51:04;;;;;;;1.70;1.60;;;;;;;20.15;68.72;96012.75;5014353;28;24448;-79
2021/09/27 11:53:44;;;;;;;2.53;1.50;;;;;;;20.31;70.04;96006.78;5011303;28;24447;-78
2021/09/27 11:56:18;;;;;;;3.38;1.83;;;;;;;20.30;66.86;96005.16;5015968;28;24455;-78